Time;durP1;ratioP1;P1;durP2;ratioP2;P2;SDS_P1;SDS_P2;PMS_P1;PMS_P2;Temp;Humidity;BMP_temperature;BMP_pressure;BME280_temperature;BME280_humidity;BME280_pressure;Samples;Min_cycle;Max_cycle;Signal;HPM_P1;HPM_P2
2022/12/18 00:07:24;;;;;;;;;;;;;;;-2.64;85.40;103115.94;20637491;28;19971;-61
2022/12/18 00:17:45;;;;;;;;;;;;;;;-2.76;85.03;103105.06;20644667;28;21650;-61
2022/12/18 00:28:07;;;;;;;;;;;;;;;-2.88;85.19;103110.28;20644984;28;19933;-61
2022/12/18 00:38:28;;;;;;;;;;;;;;;-2.93;85.21;103098.13;20631557;28;19986;-61
2022/12/18 00:48:50;;;;;;;;;;;;;;;-3.02;84.72;103102.63;20643569;28;19940;-61
2022/12/18 00:59:11;;;;;;;;;;;;;;;-3.05;83.97;103123.53;20644944;28;19933;-61
2022/12/18 01:09:33;;;;;;;;;;;;;;;-3.20;82.90;103122.59;20642909;28;19934;-61
2022/12/18 01:19:54;;;;;;;;;;;;;;;-3.46;83.05;103131.06;20646775;28;19968;-61
2022/12/18 01:30:15;;;;;;;;;;;;;;;-3.58;82.21;103139.53;20644382;28;20524;-60
2022/12/18 01:40:37;;;;;;;;;;;;;;;-3.57;81.77;103142.16;20643707;28;19934;-60
2022/12/18 01:50:59;;;;;;;;;;;;;;;-3.66;80.92;103151.69;20640873;28;19955;-60
2022/12/18 02:01:22;;;;;;;;;;;;;;;-3.67;81.39;103160.06;20656454;28;19934;-60
2022/12/18 02:11:50;;;;;;;;;;;;;;;-3.77;80.49;103167.81;20718213;28;19960;-60
2022/12/18 02:22:25;;;;;;;;;;;;;;;-3.88;80.79;103148.53;20723682;28;19972;-60
2022/12/18 02:32:50;;;;;;;;;;;;;;;-4.05;81.15;103151.63;20723738;28;19975;-60
2022/12/18 02:43:15;;;;;;;;;;;;;;;-3.98;80.14;103135.22;20695521;28;19952;-60
2022/12/18 02:53:43;;;;;;;;;;;;;;;-3.99;79.78;103143.59;20713600;28;19980;-60
2022/12/18 03:04:08;;;;;;;;;;;;;;;-4.08;80.36;103137.94;20703858;28;19925;-60
2022/12/18 03:14:31;;;;;;;;;;;;;;;-4.08;80.03;103113.50;20714744;28;20069;-60
2022/12/18 03:24:53;;;;;;;;;;;;;;;-4.13;79.61;103137.59;20708288;28;19983;-60
2022/12/18 03:35:18;;;;;;;;;;;;;;;-4.21;79.51;103146.31;20732732;28;19925;-60
2022/12/18 03:45:47;;;;;;;;;;;;;;;-4.25;79.05;103139.34;20728335;28;20425;-60
2022/12/18 03:56:09;;;;;;;;;;;;;;;-4.28;79.71;103134.06;20713490;28;19925;-60
2022/12/18 04:06:31;;;;;;;;;;;;;;;-4.28;79.31;103134.94;20726972;28;20343;-60
2022/12/18 04:16:52;;;;;;;;;;;;;;;-4.46;78.78;103153.03;20723349;28;19925;-60
2022/12/18 04:27:14;;;;;;;;;;;;;;;-4.52;78.67;103132.41;20732632;28;20357;-60
2022/12/18 04:37:35;;;;;;;;;;;;;;;-4.57;79.53;103143.84;20728417;28;19929;-60
2022/12/18 04:47:59;;;;;;;;;;;;;;;-4.55;79.44;103152.41;20716041;28;19929;-60
2022/12/18 04:58:20;;;;;;;;;;;;;;;-4.52;78.80;103152.59;20721377;28;19929;-60
2022/12/18 05:08:42;;;;;;;;;;;;;;;-4.51;78.89;103164.47;20729535;28;20347;-61
2022/12/18 05:19:03;;;;;;;;;;;;;;;-4.50;78.69;103184.78;20736518;28;19945;-60
2022/12/18 05:29:24;;;;;;;;;;;;;;;-4.47;78.78;103162.25;20766004;23;20354;-64
2022/12/18 05:39:46;;;;;;;;;;;;;;;-4.50;78.76;103171.28;20857979;28;19929;-64
2022/12/18 05:50:07;;;;;;;;;;;;;;;-4.55;79.27;103168.44;20848688;28;19998;-65
2022/12/18 06:00:29;;;;;;;;;;;;;;;-4.57;79.39;103179.19;20834454;28;20405;-64
2022/12/18 06:10:52;;;;;;;;;;;;;;;-4.53;79.04;103173.59;20848596;28;19925;-63
2022/12/18 06:21:13;;;;;;;;;;;;;;;-4.52;78.51;103188.84;20863144;28;19929;-63
2022/12/18 06:31:35;;;;;;;;;;;;;;;-4.52;78.10;103187.97;20852547;28;19979;-64
2022/12/18 06:41:56;;;;;;;;;;;;;;;-4.61;77.38;103188.22;20845155;28;19952;-64
2022/12/18 06:52:17;;;;;;;;;;;;;;;-4.62;78.45;103195.69;20847030;28;20426;-63
2022/12/18 07:02:40;;;;;;;;;;;;;;;-4.58;78.30;103202.72;20846159;28;19924;-64
2022/12/18 07:13:01;;;;;;;;;;;;;;;-4.55;79.17;103202.91;20847398;28;19929;-63
2022/12/18 07:23:23;;;;;;;;;;;;;;;-4.54;78.10;103197.13;20842659;28;19994;-63
2022/12/18 07:33:45;;;;;;;;;;;;;;;-4.51;78.52;103199.84;20852152;28;19925;-63
2022/12/18 07:44:08;;;;;;;;;;;;;;;-4.56;78.16;103180.97;20833655;28;20543;-64
2022/12/18 07:54:29;;;;;;;;;;;;;;;-4.60;78.79;103187.47;20842093;28;19960;-64
2022/12/18 08:04:51;;;;;;;;;;;;;;;-4.53;78.99;103177.00;20825061;28;19925;-63
2022/12/18 08:15:12;;;;;;;;;;;;;;;-4.42;79.33;103170.16;20826127;28;19981;-63
2022/12/18 08:25:33;;;;;;;;;;;;;;;-4.32;79.56;103172.50;20842963;28;19928;-63
2022/12/18 08:35:55;;;;;;;;;;;;;;;-4.17;79.09;103159.28;20858238;28;20415;-63
2022/12/18 08:46:17;;;;;;;;;;;;;;;-4.08;79.40;103174.16;20813804;28;20003;-64
2022/12/18 08:56:39;;;;;;;;;;;;;;;-3.87;80.06;103169.66;20850984;28;19928;-63
2022/12/18 09:07:00;;;;;;;;;;;;;;;-3.65;79.79;103198.09;20854530;28;19983;-63
2022/12/18 09:17:21;;;;;;;;;;;;;;;-3.45;79.37;103202.78;20852886;28;19925;-63
2022/12/18 09:27:46;;;;;;;;;;;;;;;-3.29;80.50;103203.88;20850229;28;19955;-63
2022/12/18 09:38:09;;;;;;;;;;;;;;;-3.10;79.23;103189.09;20842148;28;19959;-64
2022/12/18 09:48:34;;;;;;;;;;;;;;;-2.90;80.42;103207.16;20845469;28;20012;-64
2022/12/18 09:58:58;;;;;;;;;;;;;;;-2.76;79.80;103196.22;20847089;28;19929;-64
2022/12/18 10:09:19;;;;;;;;;;;;;;;-2.57;79.35;103200.00;20851854;28;19925;-64
2022/12/18 10:19:41;;;;;;;;;;;;;;;-2.44;79.64;103159.44;20848485;28;19925;-64
2022/12/18 10:30:08;;;;;;;;;;;;;;;-2.29;79.21;103151.88;20844156;28;19929;-65
2022/12/18 10:40:30;;;;;;;;;;;;;;;-2.09;79.77;103138.69;20843453;28;19979;-64
2022/12/18 10:50:52;;;;;;;;;;;;;;;-1.86;80.64;103138.34;20842961;28;19951;-65
2022/12/18 11:01:52;;;;;;;;;;;;;;;-1.70;81.11;103110.50;20844596;28;20023;-65
2022/12/18 11:12:18;;;;;;;;;;;;;;;-1.54;80.64;103102.97;20849514;28;19936;-65
2022/12/18 11:22:40;;;;;;;;;;;;;;;-1.44;79.58;103087.47;20853356;28;20094;-67
2022/12/18 11:33:04;;;;;;;;;;;;;;;-1.27;79.76;103070.63;20839757;28;19928;-66
2022/12/18 11:43:37;;;;;;;;;;;;;;;-1.12;79.71;103049.44;20822436;28;20396;-66
2022/12/18 11:53:59;;;;;;;;;;;;;;;-0.95;80.23;103040.16;20831367;28;19929;-67
2022/12/18 12:04:27;;;;;;;;;;;;;;;-0.88;79.85;103015.97;20847966;28;19979;-67
2022/12/18 12:14:54;;;;;;;;;;;;;;;-0.79;80.08;103003.72;20839088;28;20050;-67
2022/12/18 12:25:21;;;;;;;;;;;;;;;-0.73;79.62;102997.28;20845782;28;19925;-67
2022/12/18 12:35:46;;;;;;;;;;;;;;;-0.69;79.85;102995.75;20831913;28;19925;-67
2022/12/18 12:46:19;;;;;;;;;;;;;;;-0.65;80.36;102969.72;20837155;28;19940;-67
2022/12/18 12:56:47;;;;;;;;;;;;;;;-0.57;79.68;102958.25;20854140;28;19935;-67
2022/12/18 13:07:28;;;;;;;;;;;;;;;-0.55;79.86;102946.50;20834312;28;19944;-66
2022/12/18 13:18:09;;;;;;;;;;;;;;;-0.52;78.49;102922.09;20859618;28;20011;-68
2022/12/18 13:28:46;;;;;;;;;;;;;;;-0.46;79.57;102908.81;20849811;28;20295;-67
2022/12/18 13:39:10;;;;;;;;;;;;;;;-0.43;79.71;102903.88;20857348;28;19933;-67
2022/12/18 13:49:40;;;;;;;;;;;;;;;-0.43;79.03;102891.16;20857385;28;19925;-68
2022/12/18 14:00:20;;;;;;;;;;;;;;;-0.46;79.43;102891.03;20855412;28;19932;-68
2022/12/18 14:10:45;;;;;;;;;;;;;;;-0.50;79.06;102862.06;20859621;28;19948;-68
2022/12/18 14:21:36;;;;;;;;;;;;;;;-0.50;78.84;102856.09;20833275;28;20276;-67
2022/12/18 14:32:05;;;;;;;;;;;;;;;-0.52;78.89;102850.94;20861383;28;19931;-68
2022/12/18 14:42:33;;;;;;;;;;;;;;;-0.58;78.11;102854.84;20832529;28;19929;-67
2022/12/18 14:52:54;;;;;;;;;;;;;;;-0.62;78.44;102832.66;20848276;28;19925;-67
2022/12/18 15:03:18;;;;;;;;;;;;;;;-0.67;78.41;102813.75;20846026;28;19937;-68
2022/12/18 15:13:40;;;;;;;;;;;;;;;-0.69;79.10;102779.75;20840140;28;19929;-69
2022/12/18 15:24:02;;;;;;;;;;;;;;;-0.65;78.46;102746.06;20841200;28;20170;-68
2022/12/18 15:34:25;;;;;;;;;;;;;;;-0.65;78.55;102733.38;20838647;28;19925;-68
2022/12/18 15:44:46;;;;;;;;;;;;;;;-0.64;78.82;102728.34;20841049;28;20277;-68
2022/12/18 16:05:51;;;;;;;;;;;;;;;-0.52;77.76;102728.06;20829307;28;19925;-67
2022/12/18 16:16:12;;;;;;;;;;;;;;;-0.47;76.61;102702.03;20836808;28;19929;-68
2022/12/18 16:26:33;;;;;;;;;;;;;;;-0.45;77.37;102674.13;20841974;28;19935;-67
2022/12/18 16:36:59;;;;;;;;;;;;;;;-0.43;76.34;102658.16;20847323;28;19932;-67
2022/12/18 16:47:25;;;;;;;;;;;;;;;-0.42;76.21;102643.78;20842225;28;20008;-68
2022/12/18 16:57:47;;;;;;;;;;;;;;;-0.40;77.07;102642.16;20859013;28;19925;-67
2022/12/18 17:08:08;;;;;;;;;;;;;;;-0.34;76.54;102611.91;20846644;28;20415;-68
2022/12/18 17:18:30;;;;;;;;;;;;;;;-0.31;76.45;102607.81;20854937;28;19929;-66
2022/12/18 17:28:51;;;;;;;;;;;;;;;-0.25;75.71;102597.94;20845679;28;19925;-67
2022/12/18 17:39:16;;;;;;;;;;;;;;;-0.20;76.22;102571.00;20854661;28;19952;-68
2022/12/18 17:49:38;;;;;;;;;;;;;;;-0.12;75.50;102556.06;20860954;28;19937;-68
2022/12/18 17:59:59;;;;;;;;;;;;;;;-0.09;75.04;102551.09;20851679;28;20297;-69
2022/12/18 18:10:20;;;;;;;;;;;;;;;-0.02;75.10;102535.31;20849620;28;19932;-70
2022/12/18 18:20:42;;;;;;;;;;;;;;;-0.01;74.38;102506.50;20835044;28;19974;-69
2022/12/18 18:31:07;;;;;;;;;;;;;;;0.01;74.48;102522.69;20831843;23;20074;-74
2022/12/18 18:41:29;;;;;;;;;;;;;;;0.11;73.52;102489.16;20772045;28;19936;-72
2022/12/18 18:51:51;;;;;;;;;;;;;;;0.25;72.33;102502.44;20801047;28;19963;-72
2022/12/18 19:02:13;;;;;;;;;;;;;;;0.31;72.24;102485.69;20788818;28;20335;-72
2022/12/18 19:23:14;;;;;;;;;;;;;;;0.42;72.12;102484.44;20797258;28;19925;-73
2022/12/18 19:33:37;;;;;;;;;;;;;;;0.47;71.30;102467.66;20787040;28;19925;-72
2022/12/18 19:44:04;;;;;;;;;;;;;;;0.52;71.11;102476.34;20787983;28;20368;-73
2022/12/18 19:54:29;;;;;;;;;;;;;;;0.56;70.09;102483.28;20798412;28;19929;-73
2022/12/18 20:04:51;;;;;;;;;;;;;;;0.53;72.26;102475.50;20785765;28;19925;-73
2022/12/18 20:15:12;;;;;;;;;;;;;;;0.57;70.91;102457.00;20794645;28;19929;-73
2022/12/18 20:25:34;;;;;;;;;;;;;;;0.61;70.90;102481.75;20798490;28;20387;-73
2022/12/18 20:35:59;;;;;;;;;;;;;;;0.59;70.84;102460.47;20815936;28;19925;-73
2022/12/18 20:46:23;;;;;;;;;;;;;;;0.63;71.31;102464.88;20804371;28;19935;-73
2022/12/18 20:56:45;;;;;;;;;;;;;;;0.64;72.06;102446.22;20811600;28;19932;-73
2022/12/18 21:07:06;;;;;;;;;;;;;;;0.66;72.58;102439.50;20809685;28;20265;-73
2022/12/18 21:17:28;;;;;;;;;;;;;;;0.67;71.78;102415.78;20796834;28;19925;-73
2022/12/18 21:27:50;;;;;;;;;;;;;;;0.67;70.67;102415.78;20805508;28;20475;-73
2022/12/18 21:38:13;;;;;;;;;;;;;;;0.76;71.84;102411.03;20814126;28;19929;-73
2022/12/18 21:48:37;;;;;;;;;;;;;;;0.72;72.24;102401.53;20804225;28;19952;-73
2022/12/18 21:58:58;;;;;;;;;;;;;;;0.82;72.39;102411.22;20793998;28;19925;-73
2022/12/18 22:09:21;;;;;;;;;;;;;;;0.88;72.51;102395.28;20801628;28;19971;-73
2022/12/18 22:19:42;;;;;;;;;;;;;;;0.96;70.20;102376.03;20807145;28;19975;-73
2022/12/18 22:30:04;;;;;;;;;;;;;;;0.98;70.57;102362.53;20804907;28;20276;-73
2022/12/18 22:40:26;;;;;;;;;;;;;;;1.07;71.15;102346.69;20812172;28;19972;-73
2022/12/18 22:50:48;;;;;;;;;;;;;;;1.16;71.77;102338.44;20798089;28;19935;-73
2022/12/18 23:01:18;;;;;;;;;;;;;;;1.18;72.16;102335.16;20799425;28;19925;-74
2022/12/18 23:11:40;;;;;;;;;;;;;;;1.22;72.21;102315.72;20808509;28;19949;-73
2022/12/18 23:22:01;;;;;;;;;;;;;;;1.29;72.74;102308.31;20804323;28;19976;-73
2022/12/18 23:32:30;;;;;;;;;;;;;;;1.32;73.23;102282.06;20800158;28;19929;-72
2022/12/18 23:42:53;;;;;;;;;;;;;;;1.35;72.54;102267.72;20789889;28;20300;-73
2022/12/18 23:53:14;;;;;;;;;;;;;;;1.44;73.12;102256.94;20799153;28;20407;-72
